Time;durP1;ratioP1;P1;durP2;ratioP2;P2;SDS_P1;SDS_P2;PMS_P1;PMS_P2;Temp;Humidity;BMP_temperature;BMP_pressure;BME280_temperature;BME280_humidity;BME280_pressure;Samples;Min_cycle;Max_cycle;Signal;HPM_P1;HPM_P2
2023/07/29 00:00:53;;;;;;;8.67;4.10;;;18.40;66.20;;;;;;5067524;28;20183;-66
2023/07/29 00:03:20;;;;;;;7.97;4.00;;;18.50;65.60;;;;;;5070260;28;20183;-66
2023/07/29 00:05:48;;;;;;;7.70;4.10;;;18.60;65.90;;;;;;5073543;28;20189;-66
2023/07/29 00:08:16;;;;;;;7.37;4.13;;;18.80;65.40;;;;;;5072346;28;20186;-67
2023/07/29 00:10:43;;;;;;;6.67;3.50;;;18.70;65.00;;;;;;5073083;28;20540;-67
2023/07/29 00:13:11;;;;;;;9.80;4.20;;;18.80;65.30;;;;;;5070912;28;20179;-67
2023/07/29 00:15:38;;;;;;;9.33;4.73;;;18.90;65.10;;;;;;5072175;28;20171;-65
2023/07/29 00:18:05;;;;;;;7.43;3.90;;;19.00;65.30;;;;;;5071182;28;20190;-65
2023/07/29 00:20:33;;;;;;;11.73;3.40;;;19.00;64.40;;;;;;5071828;28;20194;-64
2023/07/29 00:23:01;;;;;;;9.23;3.90;;;19.00;64.40;;;;;;5074325;28;20190;-64
2023/07/29 00:25:28;;;;;;;15.77;3.80;;;19.10;64.50;;;;;;5078419;28;20202;-64
2023/07/29 00:27:57;;;;;;;8.10;3.13;;;19.40;64.00;;;;;;5076010;28;20190;-69
2023/07/29 00:30:24;;;;;;;5.93;2.90;;;19.60;62.80;;;;;;5075276;28;20179;-64
2023/07/29 00:32:51;;;;;;;7.70;2.90;;;19.70;61.80;;;;;;5077096;28;20302;-64
2023/07/29 00:35:18;;;;;;;9.33;2.20;;;20.00;60.80;;;;;;5075635;28;20671;-66
2023/07/29 00:37:46;;;;;;;4.03;1.87;;;20.20;59.20;;;;;;5079996;28;20675;-64
2023/07/29 00:40:21;;;;;;;4.03;2.03;;;20.30;59.10;;;;;;5079339;28;20228;-66
2023/07/29 00:42:50;;;;;;;5.67;1.57;;;20.50;58.00;;;;;;5077673;28;20216;-65
2023/07/29 00:45:17;;;;;;;6.87;2.03;;;20.60;57.40;;;;;;5075533;28;20168;-63
2023/07/29 00:47:45;;;;;;;7.17;1.77;;;20.80;56.60;;;;;;5075154;28;20179;-65
2023/07/29 00:50:13;;;;;;;3.90;1.37;;;20.90;56.30;;;;;;5078401;28;20171;-64
2023/07/29 00:52:41;;;;;;;3.30;1.40;;;21.20;55.70;;;;;;5071542;28;20198;-64
2023/07/29 00:55:09;;;;;;;1.83;1.30;;;21.40;54.20;;;;;;5074385;28;20610;-64
2023/07/29 00:57:36;;;;;;;3.50;1.30;;;21.50;53.60;;;;;;5074869;28;20172;-71
2023/07/29 01:00:04;;;;;;;3.40;1.57;;;21.40;53.00;;;;;;5078941;28;20175;-64
2023/07/29 01:02:32;;;;;;;4.40;1.70;;;21.50;53.60;;;;;;5076060;28;20168;-65
2023/07/29 01:05:01;;;;;;;4.03;1.37;;;21.40;52.60;;;;;;5074187;28;20709;-67
2023/07/29 01:07:40;;;;;;;4.17;1.40;;;21.30;53.00;;;;;;5074649;28;20573;-65
2023/07/29 01:10:16;;;;;;;1.70;1.40;;;21.40;53.30;;;;;;5075298;28;20179;-67
2023/07/29 01:13:10;;;;;;;2.83;1.40;;;21.50;52.40;;;;;;5071750;28;20210;-64
2023/07/29 01:16:01;;;;;;;2.73;1.27;;;21.50;51.70;;;;;;5072874;28;20230;-65
2023/07/29 01:18:35;;;;;;;3.37;1.40;;;21.70;51.20;;;;;;5073912;28;20183;-64
2023/07/29 01:21:08;;;;;;;4.23;1.50;;;21.80;51.20;;;;;;5075567;28;20194;-66
2023/07/29 01:23:36;;;;;;;4.03;1.30;;;21.70;51.00;;;;;;5073462;28;20183;-65
2023/07/29 01:26:04;;;;;;;3.73;1.50;;;21.80;51.10;;;;;;5077775;28;20183;-67
2023/07/29 01:28:32;;;;;;;5.37;2.03;;;21.60;51.60;;;;;;5074041;28;20190;-69
2023/07/29 01:31:17;;;;;;;7.07;1.57;;;21.50;51.20;;;;;;5078337;28;20190;-68
2023/07/29 01:33:56;;;;;;;3.00;1.33;;;21.70;51.70;;;;;;5072519;28;20243;-66
2023/07/29 01:36:28;;;;;;;5.30;1.70;;;22.20;50.70;;;;;;5073133;28;20183;-66
2023/07/29 01:38:56;;;;;;;4.50;1.80;;;22.80;48.70;;;;;;5073774;28;20187;-66
2023/07/29 01:41:25;;;;;;;3.47;1.60;;;23.00;48.20;;;;;;5074055;28;20187;-68
2023/07/29 01:43:54;;;;;;;3.33;1.60;;;23.00;47.20;;;;;;5071743;28;20218;-72
2023/07/29 01:46:21;;;;;;;3.40;1.50;;;22.90;47.90;;;;;;5074014;28;20281;-68
2023/07/29 01:48:48;;;;;;;3.63;1.90;;;23.20;47.80;;;;;;5073081;28;20230;-64
2023/07/29 01:51:16;;;;;;;4.50;1.60;;;23.30;47.60;;;;;;5072476;28;20179;-65
2023/07/29 01:53:43;;;;;;;6.67;2.00;;;23.10;47.50;;;;;;5072960;28;20207;-65
2023/07/29 01:56:11;;;;;;;2.47;1.13;;;22.90;48.10;;;;;;5063497;28;20717;-65
2023/07/29 01:58:38;;;;;;;1.33;1.17;;;22.80;48.50;;;;;;5072260;28;20171;-68
2023/07/29 02:01:05;;;;;;;5.13;1.23;;;22.30;49.70;;;;;;5073537;28;20183;-72
2023/07/29 02:03:33;;;;;;;4.37;1.20;;;22.20;49.50;;;;;;5069914;28;20194;-64
2023/07/29 02:06:00;;;;;;;2.13;1.27;;;22.10;49.20;;;;;;5073628;28;20183;-71
2023/07/29 02:08:27;;;;;;;1.67;1.30;;;22.00;49.70;;;;;;5073293;28;20206;-67
2023/07/29 02:10:55;;;;;;;4.67;1.20;;;22.00;50.10;;;;;;5072291;28;20245;-64
2023/07/29 02:13:22;;;;;;;3.90;1.33;;;22.10;49.40;;;;;;5072987;28;20207;-71
2023/07/29 02:15:50;;;;;;;3.57;1.30;;;22.30;48.10;;;;;;5072989;28;20221;-66
2023/07/29 02:18:17;;;;;;;2.10;0.87;;;22.20;47.70;;;;;;5073081;28;20234;-64
2023/07/29 02:20:49;;;;;;;3.40;1.20;;;22.00;47.30;;;;;;5073042;28;20207;-65
2023/07/29 02:23:19;;;;;;;4.17;1.27;;;22.30;47.10;;;;;;5067935;28;20254;-71
2023/07/29 02:25:47;;;;;;;2.23;0.93;;;22.80;46.60;;;;;;5070605;28;20176;-70
2023/07/29 02:28:14;;;;;;;1.50;1.13;;;23.30;44.90;;;;;;5071809;28;20191;-70
2023/07/29 02:30:44;;;;;;;2.27;1.00;;;23.60;44.30;;;;;;5073000;28;20180;-63
2023/07/29 02:33:12;;;;;;;2.00;1.07;;;23.80;44.00;;;;;;5066822;28;20227;-64
2023/07/29 02:35:39;;;;;;;1.43;1.00;;;23.80;44.10;;;;;;5069495;28;20194;-64
2023/07/29 02:38:06;;;;;;;4.37;1.43;;;24.10;44.30;;;;;;5087839;28;20316;-63
2023/07/29 02:40:34;;;;;;;3.93;1.23;;;24.60;43.20;;;;;;5071359;28;20211;-63
2023/07/29 02:43:01;;;;;;;1.80;1.00;;;24.80;42.80;;;;;;5072547;28;20594;-65
2023/07/29 02:45:29;;;;;;;2.87;1.17;;;24.40;43.00;;;;;;5070636;28;20255;-65
2023/07/29 02:47:56;;;;;;;3.43;1.20;;;24.10;44.10;;;;;;5068728;28;20183;-65
2023/07/29 02:50:23;;;;;;;2.93;1.30;;;24.30;44.30;;;;;;5068581;28;20854;-66
2023/07/29 02:52:51;;;;;;;1.87;1.20;;;24.20;44.40;;;;;;5071857;28;20316;-63
2023/07/29 02:55:19;;;;;;;2.47;1.20;;;24.20;44.10;;;;;;5072377;28;20681;-64
2023/07/29 02:57:46;;;;;;;5.73;1.70;;;24.50;44.40;;;;;;5071327;28;20321;-65
2023/07/29 03:00:15;;;;;;;3.53;1.57;;;24.60;44.50;;;;;;5072002;28;20180;-64
2023/07/29 03:02:42;;;;;;;3.63;1.40;;;24.70;44.10;;;;;;5071896;28;20187;-64
2023/07/29 03:05:09;;;;;;;3.97;1.53;;;24.70;43.80;;;;;;5072322;28;20176;-64
2023/07/29 03:07:37;;;;;;;5.43;1.40;;;24.00;45.80;;;;;;5072194;28;20191;-64
2023/07/29 03:10:05;;;;;;;4.60;1.53;;;24.00;46.30;;;;;;5071259;28;20197;-63
2023/07/29 03:12:32;;;;;;;4.60;1.90;;;23.80;46.40;;;;;;5069257;28;20191;-63
2023/07/29 03:15:00;;;;;;;4.10;1.90;;;23.40;46.80;;;;;;5069013;28;20291;-62
2023/07/29 03:17:28;;;;;;;4.27;1.90;;;23.20;47.40;;;;;;5072000;28;20244;-63
2023/07/29 03:19:56;;;;;;;2.97;1.70;;;23.10;47.20;;;;;;5070180;28;20191;-64
2023/07/29 03:22:23;;;;;;;7.37;1.90;;;23.10;47.80;;;;;;5071108;28;20190;-63
2023/07/29 03:24:50;;;;;;;5.33;2.20;;;23.10;47.90;;;;;;5071099;28;20178;-63
2023/07/29 03:27:18;;;;;;;4.27;1.97;;;23.80;47.20;;;;;;5071390;28;20175;-63
2023/07/29 03:29:45;;;;;;;4.60;1.50;;;24.20;45.90;;;;;;5070504;28;20184;-63
2023/07/29 03:32:13;;;;;;;4.00;1.50;;;24.80;44.40;;;;;;5066634;28;20220;-63
2023/07/29 03:34:40;;;;;;;4.00;1.60;;;24.80;44.30;;;;;;5074026;28;20202;-64
2023/07/29 03:37:07;;;;;;;4.97;1.40;;;24.90;43.80;;;;;;5073420;28;20194;-63
2023/07/29 03:39:34;;;;;;;2.30;1.50;;;24.50;44.50;;;;;;5068933;28;20182;-63
2023/07/29 03:42:03;;;;;;;3.30;1.67;;;24.60;44.60;;;;;;5069001;28;20189;-64
2023/07/29 03:44:31;;;;;;;2.03;1.30;;;24.10;45.80;;;;;;5069608;28;20202;-63
2023/07/29 03:46:58;;;;;;;6.10;1.80;;;23.80;46.40;;;;;;5070025;28;20266;-64
2023/07/29 03:49:25;;;;;;;5.47;2.30;;;23.50;47.00;;;;;;5070177;28;20267;-63
2023/07/29 03:51:52;;;;;;;4.37;1.97;;;23.30;47.70;;;;;;5071198;28;20184;-63
2023/07/29 03:54:20;;;;;;;4.40;2.00;;;23.20;48.10;;;;;;5068232;28;20293;-64
2023/07/29 03:56:47;;;;;;;4.53;1.60;;;23.30;48.70;;;;;;5071179;28;20231;-64
2023/07/29 03:59:14;;;;;;;2.93;1.60;;;23.30;48.10;;;;;;5071454;28;20536;-64
2023/07/29 04:01:42;;;;;;;3.57;1.53;;;23.60;47.90;;;;;;5071348;28;20171;-63
2023/07/29 04:04:09;;;;;;;4.13;1.80;;;24.00;46.30;;;;;;5067923;28;20183;-65
2023/07/29 04:06:36;;;;;;;7.93;1.70;;;24.70;45.60;;;;;;5071865;28;20274;-63
2023/07/29 04:09:03;;;;;;;5.47;1.83;;;24.80;45.50;;;;;;5070877;28;20228;-65
2023/07/29 04:11:31;;;;;;;6.27;2.30;;;25.10;44.50;;;;;;5071747;28;20539;-65
2023/07/29 04:13:58;;;;;;;7.13;1.87;;;25.00;44.70;;;;;;5070925;28;20288;-64
2023/07/29 04:16:26;;;;;;;5.23;1.87;;;25.00;44.70;;;;;;5071606;28;20179;-64
2023/07/29 04:18:53;;;;;;;4.53;2.00;;;24.80;45.20;;;;;;5069918;28;20183;-65
2023/07/29 04:21:20;;;;;;;6.53;2.30;;;24.30;46.50;;;;;;5071847;28;20536;-64
2023/07/29 04:23:48;;;;;;;6.80;1.77;;;23.80;47.30;;;;;;5070697;28;20183;-63
2023/07/29 04:26:15;;;;;;;6.70;1.60;;;23.80;47.10;;;;;;5071587;28;20179;-64
2023/07/29 04:28:43;;;;;;;3.40;1.87;;;24.10;47.50;;;;;;5071076;28;20181;-64
2023/07/29 04:31:10;;;;;;;6.70;1.77;;;25.10;45.40;;;;;;5068131;28;20223;-64
2023/07/29 04:33:38;;;;;;;9.80;2.00;;;25.30;44.60;;;;;;5071184;28;20288;-64
2023/07/29 04:36:05;;;;;;;6.67;2.00;;;25.60;44.40;;;;;;5071271;28;20238;-65
2023/07/29 04:38:34;;;;;;;6.93;2.07;;;26.20;42.30;;;;;;5071199;28;20477;-65
2023/07/29 04:41:01;;;;;;;3.10;1.80;;;25.50;43.70;;;;;;5071255;28;20203;-64
2023/07/29 04:43:31;;;;;;;3.13;1.70;;;24.70;45.70;;;;;;5069511;28;20206;-64
2023/07/29 04:45:58;;;;;;;4.80;1.77;;;24.30;46.70;;;;;;5069809;28;20256;-64
2023/07/29 04:48:25;;;;;;;6.10;2.07;;;23.70;47.50;;;;;;5065867;28;20553;-64
2023/07/29 04:50:52;;;;;;;5.73;1.90;;;23.20;49.00;;;;;;5070961;28;20186;-64
2023/07/29 04:53:20;;;;;;;4.50;1.67;;;23.10;49.80;;;;;;5071306;28;20175;-64
2023/07/29 04:55:47;;;;;;;3.53;2.00;;;23.00;50.10;;;;;;5070848;28;20192;-65
2023/07/29 04:58:14;;;;;;;10.27;2.47;;;22.90;50.50;;;;;;5070155;28;20183;-64
2023/07/29 05:00:42;;;;;;;5.33;1.90;;;22.80;51.00;;;;;;5070706;28;20273;-64
2023/07/29 05:03:09;;;;;;;4.80;1.90;;;22.70;51.50;;;;;;5071281;28;20249;-65
2023/07/29 05:05:36;;;;;;;12.03;3.63;;;22.60;51.80;;;;;;5070856;28;20210;-65
2023/07/29 05:08:04;;;;;;;6.37;1.70;;;22.60;51.80;;;;;;5071180;28;20269;-64
2023/07/29 05:10:31;;;;;;;6.00;2.20;;;22.60;51.80;;;;;;5074278;28;20193;-64
2023/07/29 05:12:58;;;;;;;3.93;1.90;;;22.60;52.10;;;;;;5074334;28;20194;-64
2023/07/29 05:15:26;;;;;;;5.83;2.17;;;22.50;52.50;;;;;;5074082;28;20591;-66
2023/07/29 05:17:53;;;;;;;5.87;1.90;;;22.50;52.90;;;;;;5072904;28;20183;-64
2023/07/29 05:20:20;;;;;;;4.60;2.00;;;22.40;53.30;;;;;;5074534;28;20183;-64
2023/07/29 05:22:47;;;;;;;5.90;1.87;;;22.30;53.50;;;;;;5074246;28;20182;-64
2023/07/29 05:25:15;;;;;;;4.23;1.80;;;22.20;54.20;;;;;;5074837;28;20273;-65
2023/07/29 05:27:42;;;;;;;5.50;1.90;;;22.00;54.90;;;;;;5073852;28;20240;-64
2023/07/29 05:30:10;;;;;;;9.03;2.20;;;21.90;55.70;;;;;;5073795;28;20175;-65
2023/07/29 05:32:37;;;;;;;5.87;2.03;;;22.10;54.90;;;;;;5072737;28;20272;-64
2023/07/29 05:35:04;;;;;;;4.50;2.00;;;22.10;55.10;;;;;;5074335;28;20407;-65
2023/07/29 05:37:32;;;;;;;8.67;2.27;;;21.90;55.40;;;;;;5073363;28;20179;-64
2023/07/29 05:39:59;;;;;;;7.90;2.30;;;21.80;55.90;;;;;;5074033;28;20182;-65
2023/07/29 05:42:27;;;;;;;5.90;2.00;;;22.30;55.30;;;;;;5074253;28;20328;-65
2023/07/29 05:44:54;;;;;;;7.10;1.90;;;22.20;55.00;;;;;;5073659;28;20198;-64
2023/07/29 05:47:21;;;;;;;6.43;2.40;;;23.40;52.00;;;;;;5073733;28;20641;-64
2023/07/29 05:49:49;;;;;;;4.57;2.27;;;23.60;51.10;;;;;;5073324;28;20183;-64
2023/07/29 05:52:16;;;;;;;7.93;2.20;;;23.10;53.00;;;;;;5073675;28;20187;-64
2023/07/29 05:54:45;;;;;;;5.87;2.63;;;22.70;53.70;;;;;;5073541;28;20578;-64
2023/07/29 05:57:12;;;;;;;9.87;2.40;;;22.70;54.30;;;;;;5069220;28;20183;-64
2023/07/29 05:59:40;;;;;;;8.03;2.27;;;22.90;54.00;;;;;;5072246;28;20187;-64
2023/07/29 06:02:07;;;;;;;5.90;2.00;;;22.50;54.40;;;;;;5073273;28;20206;-64
2023/07/29 06:04:35;;;;;;;3.63;1.80;;;22.30;54.60;;;;;;5068594;28;20698;-64
2023/07/29 06:07:02;;;;;;;7.27;2.00;;;21.80;55.70;;;;;;5073425;28;20205;-64
2023/07/29 06:09:30;;;;;;;8.17;2.17;;;21.50;57.20;;;;;;5072909;28;20187;-64
2023/07/29 06:11:57;;;;;;;6.87;1.87;;;21.20;58.10;;;;;;5073515;28;20205;-63
2023/07/29 06:14:24;;;;;;;2.43;1.80;;;20.90;58.80;;;;;;5072936;28;20207;-64
2023/07/29 06:16:52;;;;;;;3.50;1.80;;;20.80;59.70;;;;;;5073074;28;20279;-64
2023/07/29 06:19:20;;;;;;;8.93;2.00;;;20.80;60.00;;;;;;5072636;28;20227;-64
2023/07/29 06:21:48;;;;;;;4.47;2.00;;;20.80;59.80;;;;;;5072715;28;20190;-63
2023/07/29 06:24:16;;;;;;;9.87;1.70;;;20.80;59.70;;;;;;5073440;28;20210;-64
2023/07/29 06:26:43;;;;;;;6.43;1.83;;;20.70;59.70;;;;;;5073147;28;20187;-64
2023/07/29 06:29:10;;;;;;;3.93;2.40;;;20.60;59.80;;;;;;5069657;28;20279;-64
2023/07/29 06:31:38;;;;;;;5.33;2.47;;;20.60;59.80;;;;;;5072343;28;20269;-64
2023/07/29 06:34:05;;;;;;;7.43;2.10;;;20.70;59.80;;;;;;5072924;28;20238;-64
2023/07/29 06:36:32;;;;;;;6.20;1.87;;;20.70;59.60;;;;;;5072952;28;20183;-64
2023/07/29 06:38:59;;;;;;;8.13;2.50;;;20.60;59.70;;;;;;5072717;28;20750;-64
2023/07/29 06:41:27;;;;;;;3.53;1.87;;;20.40;60.20;;;;;;5072835;28;20317;-64
2023/07/29 06:43:54;;;;;;;8.70;2.20;;;20.30;60.90;;;;;;5072466;28;20653;-63
2023/07/29 06:46:21;;;;;;;12.00;2.60;;;20.10;61.40;;;;;;5072596;28;20175;-65
2023/07/29 06:48:49;;;;;;;4.20;1.53;;;20.00;61.70;;;;;;5072713;28;20185;-64
2023/07/29 06:51:16;;;;;;;18.87;2.13;;;19.90;61.50;;;;;;5072576;28;20190;-63
2023/07/29 06:53:43;;;;;;;3.67;1.80;;;19.80;61.80;;;;;;5072192;28;20297;-64
2023/07/29 06:56:11;;;;;;;4.23;1.67;;;19.70;62.10;;;;;;5072402;28;20197;-65
2023/07/29 06:58:38;;;;;;;6.00;1.80;;;19.60;62.30;;;;;;5072420;28;20241;-65
2023/07/29 07:01:05;;;;;;;2.50;1.40;;;19.50;63.10;;;;;;5071883;28;20597;-65
2023/07/29 07:03:33;;;;;;;4.40;1.90;;;19.40;63.40;;;;;;5069657;28;20270;-64
2023/07/29 07:06:00;;;;;;;4.43;1.40;;;19.30;63.90;;;;;;5070130;28;20194;-64
2023/07/29 07:08:27;;;;;;;5.07;1.60;;;19.30;64.70;;;;;;5072426;28;20244;-64
2023/07/29 07:10:55;;;;;;;5.30;1.80;;;19.20;64.80;;;;;;5070856;28;20206;-64
2023/07/29 07:13:22;;;;;;;5.40;1.63;;;19.20;65.00;;;;;;5070926;28;20194;-64
2023/07/29 07:15:49;;;;;;;5.73;2.00;;;19.00;65.00;;;;;;5070849;28;20617;-64
2023/07/29 07:18:17;;;;;;;4.67;2.30;;;19.00;65.20;;;;;;5070695;28;20232;-63
2023/07/29 07:20:44;;;;;;;3.00;1.97;;;18.90;65.50;;;;;;5071991;28;20213;-64
2023/07/29 07:23:13;;;;;;;5.73;1.57;;;18.90;65.80;;;;;;5072104;28;20195;-65
2023/07/29 07:25:40;;;;;;;6.20;2.00;;;18.80;66.20;;;;;;5072023;28;20183;-64
2023/07/29 07:28:07;;;;;;;6.73;1.93;;;18.80;66.80;;;;;;5070680;28;20190;-64
2023/07/29 07:30:35;;;;;;;4.90;2.03;;;18.80;66.90;;;;;;5069278;28;20194;-65
2023/07/29 07:33:02;;;;;;;5.03;1.93;;;18.70;67.10;;;;;;5070365;28;20218;-64
2023/07/29 07:35:30;;;;;;;5.30;2.60;;;18.60;67.10;;;;;;5070152;28;20219;-63
2023/07/29 07:37:58;;;;;;;2.80;1.90;;;18.50;67.40;;;;;;5071656;28;20656;-64
2023/07/29 07:40:26;;;;;;;4.47;2.37;;;18.50;67.40;;;;;;5072150;28;20206;-64
2023/07/29 07:42:53;;;;;;;5.13;2.43;;;18.50;67.30;;;;;;5071383;28;20665;-64
2023/07/29 07:45:20;;;;;;;5.27;3.00;;;18.40;67.40;;;;;;5065460;28;20179;-65
2023/07/29 07:47:48;;;;;;;7.60;2.43;;;18.40;67.40;;;;;;5071525;28;20208;-65
2023/07/29 07:50:16;;;;;;;6.67;2.10;;;18.30;67.30;;;;;;5071614;28;20545;-64
2023/07/29 07:52:43;;;;;;;4.83;2.30;;;18.40;66.80;;;;;;5071688;28;20550;-65
2023/07/29 07:55:11;;;;;;;7.83;2.23;;;18.30;66.50;;;;;;5071351;28;20222;-64
2023/07/29 07:57:38;;;;;;;9.67;4.60;;;18.30;66.10;;;;;;5071625;28;20269;-64
2023/07/29 08:00:06;;;;;;;9.57;5.43;;;18.30;66.00;;;;;;5071240;28;20195;-64
2023/07/29 08:02:33;;;;;;;5.97;3.70;;;18.30;66.10;;;;;;5071461;28;20191;-64
2023/07/29 08:05:00;;;;;;;7.07;3.37;;;18.30;66.00;;;;;;5066471;28;20198;-64
2023/07/29 08:07:28;;;;;;;5.93;2.93;;;18.30;66.10;;;;;;5071642;28;20649;-64
2023/07/29 08:09:55;;;;;;;5.20;2.03;;;18.30;66.30;;;;;;5070309;28;20959;-67
2023/07/29 08:12:22;;;;;;;6.97;2.70;;;18.20;66.30;;;;;;5071620;28;20576;-66
2023/07/29 08:14:50;;;;;;;4.20;1.97;;;18.20;66.50;;;;;;5070965;28;20237;-64
2023/07/29 08:17:17;;;;;;;6.20;2.20;;;18.20;66.70;;;;;;5071576;28;20179;-64
2023/07/29 08:19:45;;;;;;;4.37;1.97;;;18.20;66.50;;;;;;5068794;28;20171;-63
2023/07/29 08:22:12;;;;;;;4.63;2.10;;;18.20;66.40;;;;;;5067921;28;20599;-65
2023/07/29 08:24:39;;;;;;;8.07;2.80;;;18.20;66.30;;;;;;5070378;28;20202;-63
2023/07/29 08:27:07;;;;;;;4.93;2.13;;;18.10;66.40;;;;;;5070284;28;20179;-63
2023/07/29 08:29:34;;;;;;;5.77;2.23;;;18.10;66.40;;;;;;5068516;28;20235;-63
2023/07/29 08:32:01;;;;;;;4.37;2.30;;;18.00;66.50;;;;;;5070888;28;20242;-64
2023/07/29 08:34:29;;;;;;;6.63;2.30;;;18.00;66.60;;;;;;5071334;28;20207;-63
2023/07/29 08:36:56;;;;;;;4.87;2.53;;;18.00;66.70;;;;;;5069441;28;20645;-64
2023/07/29 08:39:23;;;;;;;5.70;3.00;;;17.90;66.90;;;;;;5070359;28;20192;-64
2023/07/29 08:42:04;;;;;;;5.37;2.20;;;17.80;67.10;;;;;;5071106;28;20187;-63
2023/07/29 08:44:41;;;;;;;7.17;2.83;;;17.80;67.10;;;;;;5073476;28;20194;-63
2023/07/29 08:47:09;;;;;;;8.17;2.50;;;17.80;66.90;;;;;;5072255;28;20583;-63
2023/07/29 08:49:37;;;;;;;6.10;2.40;;;17.80;67.10;;;;;;5073267;28;20195;-63
2023/07/29 08:52:07;;;;;;;4.40;2.10;;;17.70;67.20;;;;;;5075095;28;20190;-63
2023/07/29 08:54:35;;;;;;;5.37;2.37;;;17.70;66.80;;;;;;5074900;28;20238;-63
2023/07/29 08:57:03;;;;;;;6.20;2.70;;;17.70;66.80;;;;;;5074427;28;20437;-63
2023/07/29 08:59:30;;;;;;;6.70;2.90;;;17.70;66.80;;;;;;5074250;28;20182;-63
2023/07/29 09:01:59;;;;;;;6.40;2.43;;;17.70;66.80;;;;;;5070598;28;20622;-64
2023/07/29 09:04:26;;;;;;;5.87;2.60;;;17.70;66.70;;;;;;5069513;28;20266;-64
2023/07/29 09:06:56;;;;;;;6.93;2.33;;;17.70;66.90;;;;;;5071771;28;20183;-64
2023/07/29 09:09:23;;;;;;;6.47;2.13;;;17.70;66.40;;;;;;5070986;28;20193;-65
2023/07/29 09:11:51;;;;;;;6.83;2.43;;;17.60;66.50;;;;;;5074683;28;20183;-64
2023/07/29 09:14:19;;;;;;;5.57;2.50;;;17.60;66.30;;;;;;5074293;28;20563;-65
2023/07/29 09:16:47;;;;;;;6.13;2.20;;;17.60;66.40;;;;;;5071798;28;20191;-65
2023/07/29 09:19:14;;;;;;;7.83;2.57;;;17.60;66.40;;;;;;5074558;28;20219;-65
2023/07/29 09:21:42;;;;;;;7.63;2.70;;;17.60;66.60;;;;;;5074383;28;20695;-65
2023/07/29 09:24:10;;;;;;;7.23;2.97;;;17.50;66.80;;;;;;5068549;28;20182;-65
2023/07/29 09:26:38;;;;;;;6.10;2.50;;;17.50;66.80;;;;;;5073566;28;20187;-65
2023/07/29 09:29:05;;;;;;;7.70;3.17;;;17.50;67.00;;;;;;5071236;28;20215;-65
2023/07/29 09:31:33;;;;;;;9.37;3.90;;;17.50;67.20;;;;;;5074324;28;20742;-65
2023/07/29 09:34:05;;;;;;;7.27;4.13;;;17.50;67.50;;;;;;5074116;28;20290;-65
2023/07/29 09:36:34;;;;;;;10.23;3.90;;;17.40;67.80;;;;;;5074250;28;20232;-64
2023/07/29 09:39:03;;;;;;;8.20;4.20;;;17.40;67.80;;;;;;5073905;28;20777;-66
2023/07/29 09:41:31;;;;;;;8.87;4.27;;;17.30;68.10;;;;;;5073775;28;20198;-67
2023/07/29 09:44:01;;;;;;;10.70;4.60;;;17.30;68.50;;;;;;5073811;28;20182;-65
2023/07/29 09:46:37;;;;;;;8.20;4.37;;;17.20;68.80;;;;;;5073928;28;20177;-67
2023/07/29 09:49:06;;;;;;;9.53;4.40;;;17.20;68.90;;;;;;5077151;28;20187;-65
2023/07/29 09:51:41;;;;;;;8.77;4.47;;;17.20;69.50;;;;;;5070519;28;20183;-65
2023/07/29 09:54:09;;;;;;;9.60;4.43;;;17.10;69.40;;;;;;5069575;28;20708;-65
2023/07/29 09:56:44;;;;;;;8.73;3.90;;;16.90;69.90;;;;;;5072120;28;20241;-65
2023/07/29 09:59:12;;;;;;;9.17;4.43;;;16.80;70.10;;;;;;5069935;28;20190;-65
2023/07/29 10:01:40;;;;;;;9.67;4.70;;;16.70;70.50;;;;;;5072532;28;20182;-65
2023/07/29 10:04:08;;;;;;;9.50;4.53;;;16.50;70.80;;;;;;5073709;28;20215;-65
2023/07/29 10:06:35;;;;;;;7.27;4.60;;;16.50;71.50;;;;;;5067251;28;20203;-65
2023/07/29 10:09:04;;;;;;;8.33;4.33;;;16.50;71.60;;;;;;5072834;28;20214;-64
2023/07/29 10:11:33;;;;;;;8.73;4.43;;;16.40;71.80;;;;;;5073203;28;20189;-65
2023/07/29 10:14:01;;;;;;;9.60;4.60;;;16.30;72.00;;;;;;5073080;28;20729;-66
2023/07/29 10:16:29;;;;;;;9.07;5.10;;;16.30;72.50;;;;;;5073586;28;20248;-65
2023/07/29 10:18:58;;;;;;;9.70;4.27;;;16.30;72.50;;;;;;5073504;28;20179;-65
2023/07/29 10:21:25;;;;;;;8.10;4.43;;;16.30;73.00;;;;;;5073284;28;20198;-65
2023/07/29 10:23:58;;;;;;;7.03;4.00;;;16.40;73.10;;;;;;5073122;28;20702;-64
2023/07/29 10:26:29;;;;;;;11.10;4.37;;;16.30;73.10;;;;;;5072347;28;20218;-64
2023/07/29 10:29:04;;;;;;;8.53;4.30;;;16.30;73.00;;;;;;5070979;28;20261;-64
2023/07/29 10:31:33;;;;;;;10.20;4.43;;;16.20;73.30;;;;;;5071677;28;20305;-65
2023/07/29 10:34:01;;;;;;;8.53;4.47;;;16.20;73.80;;;;;;5069810;28;20230;-65
2023/07/29 10:36:29;;;;;;;7.17;4.40;;;16.10;74.10;;;;;;5070484;28;20182;-65
2023/07/29 10:38:57;;;;;;;8.97;4.73;;;16.10;73.90;;;;;;5069574;28;20213;-65
2023/07/29 10:41:24;;;;;;;10.37;5.43;;;16.00;74.30;;;;;;5068346;28;20194;-65
2023/07/29 10:43:51;;;;;;;15.40;6.73;;;15.90;74.30;;;;;;5066075;28;20279;-65
2023/07/29 10:46:23;;;;;;;12.60;6.20;;;15.90;74.60;;;;;;5072562;28;20192;-65
2023/07/29 10:48:58;;;;;;;10.90;5.97;;;15.80;74.50;;;;;;5070749;28;20182;-64
2023/07/29 10:51:32;;;;;;;10.70;5.60;;;15.80;75.00;;;;;;5068295;28;20185;-65
2023/07/29 10:54:11;;;;;;;9.03;5.57;;;15.80;75.10;;;;;;5071813;28;20217;-64
2023/07/29 10:56:42;;;;;;;10.90;5.40;;;15.80;75.10;;;;;;5071512;28;20197;-65
2023/07/29 10:59:14;;;;;;;11.87;6.07;;;15.70;75.00;;;;;;5068000;28;20585;-64
2023/07/29 11:01:43;;;;;;;11.23;6.33;;;15.80;75.40;;;;;;5072192;28;20208;-64
2023/07/29 11:04:23;;;;;;;10.07;5.90;;;15.80;75.50;;;;;;5072372;28;20180;-64
2023/07/29 11:07:10;;;;;;;11.90;5.70;;;15.80;75.80;;;;;;5069890;28;20183;-65
2023/07/29 11:09:50;;;;;;;9.47;5.73;;;15.70;75.60;;;;;;5072261;28;20183;-66
2023/07/29 11:12:36;;;;;;;13.17;6.40;;;15.70;75.80;;;;;;5072540;28;20714;-65
2023/07/29 11:15:18;;;;;;;11.87;7.03;;;15.60;75.80;;;;;;5072039;28;20826;-68
2023/07/29 11:17:57;;;;;;;9.53;6.10;;;15.50;75.80;;;;;;5071861;28;20517;-65
2023/07/29 11:20:29;;;;;;;13.33;6.27;;;15.50;76.10;;;;;;5071540;28;20192;-69
2023/07/29 11:22:59;;;;;;;13.17;6.77;;;15.50;76.20;;;;;;5069914;28;20659;-65
2023/07/29 11:25:28;;;;;;;17.00;6.57;;;15.50;76.40;;;;;;5073250;28;20183;-65
2023/07/29 11:27:57;;;;;;;16.90;6.93;;;15.50;76.00;;;;;;5072313;28;20186;-64
2023/07/29 11:30:29;;;;;;;12.57;6.40;;;15.50;76.30;;;;;;5070799;28;20208;-64
2023/07/29 11:32:57;;;;;;;11.77;6.90;;;15.40;76.40;;;;;;5071085;28;20311;-64
2023/07/29 11:35:28;;;;;;;12.00;5.93;;;15.40;76.50;;;;;;5070716;28;20241;-64
2023/07/29 11:37:58;;;;;;;14.97;6.50;;;15.30;76.70;;;;;;5070664;28;20226;-64
2023/07/29 11:40:26;;;;;;;9.60;6.57;;;15.30;76.80;;;;;;5071893;28;20313;-66
2023/07/29 11:42:54;;;;;;;13.37;6.33;;;15.30;77.00;;;;;;5070941;28;20189;-64
2023/07/29 11:45:23;;;;;;;10.13;6.47;;;15.30;77.20;;;;;;5071048;28;20268;-64
2023/07/29 11:47:50;;;;;;;12.80;7.17;;;15.30;77.30;;;;;;5071566;28;20656;-65
2023/07/29 11:50:17;;;;;;;10.90;6.73;;;15.30;77.40;;;;;;5068861;28;20210;-66
2023/07/29 11:52:46;;;;;;;22.70;7.07;;;15.20;77.50;;;;;;5069889;28;20269;-65
2023/07/29 11:55:15;;;;;;;10.33;5.90;;;15.10;77.60;;;;;;5068681;28;20230;-65
2023/07/29 11:57:44;;;;;;;11.67;6.23;;;15.10;78.00;;;;;;5064217;28;20348;-65
2023/07/29 12:00:12;;;;;;;17.37;6.93;;;15.10;78.30;;;;;;5071773;28;20190;-68
2023/07/29 12:02:45;;;;;;;9.03;6.27;;;15.10;78.60;;;;;;5069956;28;20633;-65
2023/07/29 12:05:15;;;;;;;14.80;7.07;;;15.20;78.60;;;;;;5067800;28;20894;-65
2023/07/29 12:07:44;;;;;;;10.93;6.37;;;15.20;78.70;;;;;;5066500;28;20211;-64
2023/07/29 12:10:12;;;;;;;14.23;6.80;;;15.20;78.70;;;;;;5070113;28;20218;-65
2023/07/29 12:12:50;;;;;;;12.23;5.90;;;15.20;79.10;;;;;;5070745;28;20203;-65
2023/07/29 12:15:29;;;;;;;11.20;6.30;;;15.20;79.20;;;;;;5071177;28;20297;-65
2023/07/29 12:17:58;;;;;;;9.67;6.00;;;15.20;79.10;;;;;;5070811;28;20183;-65
2023/07/29 12:20:26;;;;;;;17.23;6.60;;;15.20;79.10;;;;;;5072523;28;20203;-64
2023/07/29 12:23:05;;;;;;;11.00;6.20;;;15.10;79.30;;;;;;5075836;28;20191;-64
2023/07/29 12:25:33;;;;;;;12.30;6.37;;;15.10;79.40;;;;;;5073737;28;20186;-64
2023/07/29 12:28:09;;;;;;;12.60;6.23;;;15.10;79.60;;;;;;5075196;28;20194;-64
2023/07/29 12:30:43;;;;;;;10.60;5.80;;;15.00;79.50;;;;;;5074527;28;20190;-64
2023/07/29 12:33:10;;;;;;;11.87;6.53;;;15.00;79.80;;;;;;5074940;28;20223;-64
2023/07/29 12:35:38;;;;;;;13.93;6.17;;;14.90;79.70;;;;;;5074347;28;20625;-65
2023/07/29 12:38:05;;;;;;;11.57;6.20;;;14.90;80.10;;;;;;5074577;28;20585;-64
2023/07/29 12:40:33;;;;;;;14.10;7.27;;;14.90;80.00;;;;;;5075721;28;20199;-65
2023/07/29 12:43:00;;;;;;;12.37;6.10;;;14.90;80.40;;;;;;5074835;28;20195;-65
2023/07/29 12:45:28;;;;;;;12.43;6.40;;;14.90;80.40;;;;;;5075234;28;20262;-65
2023/07/29 12:47:56;;;;;;;15.73;7.23;;;14.90;80.70;;;;;;5074487;28;20219;-64
2023/07/29 12:50:24;;;;;;;14.53;6.90;;;14.90;80.80;;;;;;5075080;28;20590;-64
2023/07/29 12:52:51;;;;;;;12.37;7.80;;;14.90;80.70;;;;;;5074346;28;20283;-64